CheckWX is a tool to help pilots better visualize weather data.  It is not intended as a substitute for an official pre-flight weather briefing.

14:15:12 UTC

KROS METAR
Rush City Regional Airport
Rush City, Minnesota, USA
Current

20 mins ago

KROS 221355Z AUTO 03012G19KT 10SM -RA SCT033 BKN044 OVC085 06/05 A2997 RMK AO2 LTG DSNT S P0019 T00550046
Observed
Apr-22 @ 13:55 UTC
Wind
  • 030° at 12 KTS
  • Gusting to 19 KTS
Visibility
10 SM
Flight Rules
VFR
Conditions
Light Rain
Cloud Levels
  • Scattered at 3,300' AGL
  • Broken at 4,400' AGL
  • Overcast at 8,500' AGL
Temperature
C / 43°F
Dewpoint
C / 41°F
Humidity
93%
Altimeter
29.97" Hg
Pressure
1014.92 hPa
Current Rain
0.19"
Previous

40 mins ago

KROS 221335Z AUTO 01018G23KT 1 3/4SM /VCTSRA SCT014 BKN033 OVC042 06/05 A2996 RMK AO2 LTG DSNT S P0016 T00550045
Observed
Apr-22 @ 13:35 UTC
Wind
  • 010° at 18 KTS
  • Gusting to 23 KTS
Visibility
1 3/4 SM
Flight Rules
IFR
Conditions
Area Thunderstorm, Rain
Cloud Levels
  • Scattered at 1,400' AGL
  • Broken at 3,300' AGL
  • Overcast at 4,200' AGL
Temperature
C / 43°F
Dewpoint
C / 41°F
Humidity
93%
Altimeter
29.96" Hg
Pressure
1014.52 hPa
Current Rain
0.16"
Previous

59 mins ago

KROS 221316Z AUTO 03011G14KT 5SM TSRA BKN009 BKN043 OVC050 06/05 A3003 RMK AO2 LTG DSNT S P0007 T00550045
Observed
Apr-22 @ 13:16 UTC
Wind
  • 030° at 11 KTS
  • Gusting to 14 KTS
Visibility
5 SM
Flight Rules
IFR
Conditions
Thunderstorm, Rain
Cloud Levels
  • Broken at 900' AGL
  • Broken at 4,300' AGL
  • Overcast at 5,000' AGL
Temperature
C / 43°F
Dewpoint
C / 41°F
Humidity
93%
Altimeter
30.03" Hg
Pressure
1016.92 hPa
Current Rain
0.07"